createdAt,value
2022-11-07T00:00:08.047Z,0.65
2022-11-07T00:02:43.621Z,0.68
2022-11-07T00:05:17.177Z,0.72
2022-11-07T00:07:50.869Z,0.68
2022-11-07T00:10:26.931Z,0.66
2022-11-07T00:13:00.740Z,0.66
2022-11-07T00:15:34.217Z,0.69
2022-11-07T00:18:07.842Z,0.67
2022-11-07T00:20:41.442Z,0.68
2022-11-07T00:23:19.759Z,0.65
2022-11-07T00:25:53.599Z,0.63
2022-11-07T00:28:26.976Z,0.62
2022-11-07T00:31:01.831Z,0.65
2022-11-07T00:33:38.165Z,0.64
2022-11-07T00:36:14.390Z,0.67
2022-11-07T00:38:48.392Z,0.68
2022-11-07T00:41:22.343Z,0.73
2022-11-07T00:43:55.983Z,0.68
2022-11-07T00:46:29.726Z,0.67
2022-11-07T00:49:04.493Z,0.68
2022-11-07T00:51:42.757Z,0.72
2022-11-07T00:54:16.907Z,0.71
2022-11-07T00:56:50.711Z,0.73
2022-11-07T00:59:25.184Z,0.73
2022-11-07T01:01:59.745Z,0.76
2022-11-07T01:04:51.704Z,0.74
2022-11-07T01:07:25.098Z,0.72
2022-11-07T01:09:59.122Z,0.71
2022-11-07T01:12:36.610Z,0.73
2022-11-07T01:15:12.511Z,0.71
2022-11-07T01:17:45.959Z,0.74
2022-11-07T01:20:19.365Z,0.72
2022-11-07T01:22:53.377Z,0.71
2022-11-07T01:25:28.539Z,0.73
2022-11-07T01:28:01.953Z,0.75
2022-11-07T01:30:37.045Z,0.74
2022-11-07T01:33:11.049Z,0.74
2022-11-07T01:35:44.438Z,0.73
2022-11-07T01:38:17.740Z,0.74
2022-11-07T01:41:12.636Z,0.76
2022-11-07T01:43:49.215Z,0.77
2022-11-07T01:46:25.280Z,0.78
2022-11-07T01:49:03.314Z,0.79
2022-11-07T01:51:41.174Z,0.72
2022-11-07T01:54:16.578Z,0.76
2022-11-07T01:56:51.459Z,0.78
2022-11-07T01:59:27.853Z,0.79
2022-11-07T02:02:02.180Z,0.81
2022-11-07T02:04:36.672Z,0.83
2022-11-07T02:07:13.032Z,0.84
2022-11-07T02:09:47.260Z,0.87
2022-11-07T02:12:22.317Z,0.89
2022-11-07T02:14:56.990Z,0.91
2022-11-07T02:17:30.636Z,0.90
2022-11-07T02:20:04.135Z,0.91
2022-11-07T02:22:41.573Z,0.90
2022-11-07T02:25:16.781Z,0.90
2022-11-07T02:27:53.345Z,0.93
2022-11-07T02:30:29.744Z,0.94
2022-11-07T02:33:03.185Z,0.95
2022-11-07T02:35:39.612Z,0.96
2022-11-07T02:38:15.771Z,0.94
2022-11-07T02:40:51.937Z,0.97
2022-11-07T02:43:28.712Z,0.96
2022-11-07T02:46:04.401Z,0.96
2022-11-07T02:48:44.041Z,0.95
2022-11-07T02:51:17.694Z,0.95
2022-11-07T02:53:51.097Z,0.97
2022-11-07T02:56:25.441Z,0.94
2022-11-07T02:58:58.917Z,0.96
2022-11-07T03:01:32.579Z,0.97
2022-11-07T03:04:06.337Z,0.97
2022-11-07T03:06:39.900Z,0.99
2022-11-07T03:09:12.969Z,0.99
2022-11-07T03:11:46.298Z,0.97
2022-11-07T03:14:19.894Z,0.97
2022-11-07T03:16:53.199Z,1.01
2022-11-07T03:19:27.375Z,0.97
2022-11-07T03:22:01.741Z,1.00
2022-11-07T03:24:35.532Z,1.01
2022-11-07T03:27:10.941Z,1.02
2022-11-07T03:29:44.467Z,1.02
2022-11-07T03:32:18.010Z,1.05
2022-11-07T03:34:51.810Z,1.04
2022-11-07T03:37:25.585Z,1.01
2022-11-07T03:39:58.917Z,1.01
2022-11-07T03:42:32.203Z,1.01
2022-11-07T03:45:06.347Z,1.04
2022-11-07T03:47:41.289Z,1.03
2022-11-07T03:50:16.953Z,1.02
2022-11-07T03:52:50.609Z,1.02
2022-11-07T03:55:23.934Z,1.03
2022-11-07T03:57:58.435Z,1.02
2022-11-07T04:00:32.259Z,1.03
2022-11-07T04:03:05.942Z,1.05
2022-11-07T04:05:39.297Z,1.05
2022-11-07T04:08:13.241Z,1.05
2022-11-07T04:10:46.547Z,1.04
2022-11-07T04:13:38.862Z,1.05
2022-11-07T04:16:47.549Z,1.09
2022-11-07T04:22:01.124Z,1.18
2022-11-07T04:24:35.050Z,1.06
2022-11-07T04:27:26.264Z,1.09
2022-11-07T04:30:00.312Z,1.10
2022-11-07T04:32:35.392Z,1.11
2022-11-07T04:35:10.720Z,1.11
2022-11-07T04:37:45.083Z,1.11
2022-11-07T04:40:20.225Z,1.11
2022-11-07T04:42:54.036Z,1.11
2022-11-07T04:45:27.531Z,1.11
2022-11-07T04:48:00.909Z,1.08
2022-11-07T04:50:34.419Z,1.11
2022-11-07T04:53:08.053Z,1.09
2022-11-07T04:55:41.722Z,1.08
2022-11-07T04:58:15.179Z,1.12
2022-11-07T05:00:49.165Z,1.09
2022-11-07T05:03:24.708Z,1.07
2022-11-07T05:05:58.133Z,1.09
2022-11-07T05:08:31.444Z,1.09
2022-11-07T05:11:05.259Z,1.10
2022-11-07T05:13:39.615Z,1.11
2022-11-07T05:16:17.204Z,1.09
2022-11-07T05:18:50.673Z,1.12
2022-11-07T05:21:24.280Z,1.16
2022-11-07T05:23:57.692Z,1.20
2022-11-07T05:26:34.705Z,1.22
2022-11-07T05:29:09.584Z,1.25
2022-11-07T05:31:43.771Z,1.32
2022-11-07T05:34:17.804Z,1.29
2022-11-07T05:36:51.912Z,1.29
2022-11-07T05:39:25.374Z,1.30
2022-11-07T05:41:59.406Z,1.37
2022-11-07T05:44:33.901Z,1.39
2022-11-07T05:47:08.921Z,1.37
2022-11-07T05:49:42.056Z,1.42
2022-11-07T05:52:15.887Z,1.47
2022-11-07T05:54:50.353Z,1.46
2022-11-07T05:57:25.135Z,1.48
2022-11-07T05:59:58.795Z,1.50
2022-11-07T06:02:33.171Z,1.52
2022-11-07T06:05:10.383Z,1.52
2022-11-07T06:07:44.307Z,1.54
2022-11-07T06:10:18.005Z,1.60
2022-11-07T06:13:00.181Z,1.65
2022-11-07T06:15:35.870Z,1.65
2022-11-07T06:18:11.654Z,1.65
2022-11-07T06:20:45.743Z,1.69
2022-11-07T06:23:20.438Z,1.69
2022-11-07T06:25:54.393Z,1.66
2022-11-07T06:28:28.175Z,1.69
2022-11-07T06:31:03.746Z,1.70
2022-11-07T06:33:37.291Z,1.78
2022-11-07T06:36:13.879Z,1.84
2022-11-07T06:38:48.119Z,1.84
2022-11-07T06:41:22.099Z,1.86
2022-11-07T06:43:55.732Z,1.83
2022-11-07T06:46:29.299Z,1.85
2022-11-07T06:49:02.781Z,1.92
2022-11-07T06:51:36.311Z,1.92
2022-11-07T06:54:09.982Z,1.95
2022-11-07T06:56:43.542Z,1.99
2022-11-07T06:59:17.068Z,1.94
2022-11-07T07:01:52.291Z,2.01
2022-11-07T07:04:25.796Z,2.09
2022-11-07T07:06:59.305Z,2.11
2022-11-07T07:09:33.382Z,2.18
2022-11-07T07:12:12.511Z,2.23
2022-11-07T07:14:46.200Z,2.18
2022-11-07T07:17:20.276Z,2.14
2022-11-07T07:19:54.253Z,2.14
2022-11-07T07:22:27.690Z,2.21
2022-11-07T07:25:01.440Z,2.17
2022-11-07T07:27:34.997Z,2.26
2022-11-07T07:30:11.437Z,2.34
2022-11-07T07:32:45.124Z,2.43
2022-11-07T07:35:19.044Z,2.46
2022-11-07T07:37:54.028Z,2.50
2022-11-07T07:40:27.412Z,2.53
2022-11-07T07:43:00.883Z,2.51
2022-11-07T07:45:34.404Z,2.51
2022-11-07T07:48:09.049Z,2.56
2022-11-07T07:50:42.606Z,2.59
2022-11-07T07:53:16.346Z,2.60
2022-11-07T07:55:50.461Z,2.63
2022-11-07T07:58:24.389Z,2.60
2022-11-07T08:00:59.172Z,2.67
2022-11-07T08:03:57.621Z,2.76
2022-11-07T08:06:09.574Z,2.84
2022-11-07T08:08:44.540Z,2.85
2022-11-07T08:11:18.001Z,2.89
2022-11-07T08:13:51.607Z,2.87
2022-11-07T08:16:25.124Z,2.82
2022-11-07T08:18:58.769Z,2.90
2022-11-07T08:21:34.725Z,2.81
2022-11-07T08:24:09.981Z,2.71
2022-11-07T08:26:43.693Z,2.85
2022-11-07T08:29:18.104Z,2.87
2022-11-07T08:31:51.743Z,2.88
2022-11-07T08:34:25.480Z,2.81
2022-11-07T08:36:59.568Z,2.79
2022-11-07T08:39:33.256Z,2.75
2022-11-07T08:42:07.922Z,2.71
2022-11-07T08:44:42.164Z,2.73
2022-11-07T08:47:15.792Z,2.75
2022-11-07T08:49:51.544Z,2.75
2022-11-07T08:52:25.438Z,2.77
2022-11-07T08:55:01.082Z,2.77
2022-11-07T08:57:36.848Z,2.87
2022-11-07T09:00:14.153Z,2.86
2022-11-07T09:05:27.501Z,2.86
2022-11-07T09:08:01.356Z,2.84
2022-11-07T09:10:35.236Z,2.86
2022-11-07T09:13:08.759Z,2.87
2022-11-07T09:15:50.348Z,2.96
2022-11-07T09:18:20.011Z,3.06
2022-11-07T09:20:54.960Z,3.12
2022-11-07T09:23:28.834Z,3.14
2022-11-07T09:26:02.907Z,3.20
2022-11-07T09:28:36.891Z,3.23
2022-11-07T09:31:11.031Z,3.18
2022-11-07T09:33:45.198Z,3.18
2022-11-07T09:36:18.877Z,3.30
2022-11-07T09:38:53.751Z,3.38
2022-11-07T09:44:47.770Z,3.38
2022-11-07T09:47:25.298Z,3.26
2022-11-07T09:50:02.734Z,3.36
2022-11-07T09:52:41.292Z,3.36
2022-11-07T09:55:20.981Z,3.35
2022-11-07T09:57:57.393Z,3.35
2022-11-07T10:00:32.836Z,3.28
2022-11-07T10:03:08.985Z,3.24
2022-11-07T10:05:50.785Z,3.24
2022-11-07T10:08:27.461Z,3.27
2022-11-07T10:11:03.883Z,3.35
2022-11-07T10:13:54.311Z,3.40
2022-11-07T10:16:37.321Z,3.42
2022-11-07T10:19:24.019Z,3.40
2022-11-07T10:22:02.352Z,3.46
2022-11-07T10:24:51.966Z,3.50
2022-11-07T10:27:27.583Z,3.50
2022-11-07T10:30:02.104Z,3.46
2022-11-07T10:32:40.101Z,3.42
2022-11-07T10:35:16.941Z,3.42
2022-11-07T10:37:57.229Z,3.50
2022-11-07T10:40:35.408Z,3.36
2022-11-07T10:43:11.548Z,3.34
2022-11-07T10:45:45.880Z,3.30
2022-11-07T10:48:19.904Z,3.26
2022-11-07T10:50:57.744Z,3.27
2022-11-07T10:53:31.336Z,3.29
2022-11-07T10:56:07.587Z,3.31
2022-11-07T10:58:46.510Z,3.24
2022-11-07T11:01:26.061Z,3.22
2022-11-07T11:04:00.177Z,3.21
2022-11-07T11:06:34.165Z,3.26
2022-11-07T11:09:20.052Z,3.25
2022-11-07T11:11:55.159Z,3.21
2022-11-07T11:14:28.952Z,3.18
2022-11-07T11:17:02.756Z,3.11
2022-11-07T11:19:40.957Z,3.04
2022-11-07T11:22:18.813Z,2.97
2022-11-07T11:25:01.563Z,3.02
2022-11-07T11:27:39.669Z,3.13
2022-11-07T11:30:17.849Z,3.09
2022-11-07T11:32:54.156Z,3.09
2022-11-07T11:35:42.031Z,3.07
2022-11-07T11:38:18.001Z,3.09
2022-11-07T11:41:03.287Z,3.09
2022-11-07T11:43:33.264Z,3.09
2022-11-07T11:46:10.841Z,3.11
2022-11-07T11:48:48.269Z,3.09
2022-11-07T11:51:25.402Z,3.06
2022-11-07T11:53:59.731Z,3.02
2022-11-07T11:56:41.029Z,3.03
2022-11-07T11:59:36.539Z,3.09
2022-11-07T12:02:25.151Z,3.12
2022-11-07T12:05:02.636Z,3.13
2022-11-07T12:07:45.911Z,3.15
2022-11-07T12:10:22.987Z,3.16
2022-11-07T12:13:02.696Z,3.13
2022-11-07T12:15:52.582Z,3.07
2022-11-07T12:18:30.873Z,3.06
2022-11-07T12:21:10.479Z,3.05
2022-11-07T12:23:51.304Z,3.02
2022-11-07T12:26:28.156Z,3.02
2022-11-07T12:29:06.036Z,3.02
2022-11-07T12:31:51.184Z,3.06
2022-11-07T12:34:34.890Z,2.96
2022-11-07T12:37:20.819Z,2.96
2022-11-07T12:40:05.539Z,2.95
2022-11-07T12:42:49.108Z,2.90
2022-11-07T12:45:26.658Z,2.87
2022-11-07T12:48:13.479Z,2.88
2022-11-07T12:50:50.991Z,2.87
2022-11-07T12:53:32.972Z,2.91
2022-11-07T12:56:09.829Z,2.95
2022-11-07T12:58:45.258Z,2.96
2022-11-07T13:01:21.872Z,2.94
2022-11-07T13:04:04.366Z,2.90
2022-11-07T13:06:40.879Z,2.92
2022-11-07T13:09:20.579Z,2.90
2022-11-07T13:11:59.196Z,2.87
2022-11-07T13:14:36.477Z,2.87
2022-11-07T13:17:21.147Z,2.88
2022-11-07T13:20:06.181Z,2.89
2022-11-07T13:22:41.681Z,2.93
2022-11-07T13:25:33.332Z,2.94
2022-11-07T13:28:10.660Z,2.90
2022-11-07T13:30:48.089Z,2.86
2022-11-07T13:33:29.826Z,2.85
2022-11-07T13:36:14.452Z,2.83
2022-11-07T13:38:54.605Z,2.84
2022-11-07T13:41:31.438Z,2.86
2022-11-07T13:44:08.003Z,2.89
2022-11-07T13:46:46.695Z,2.90
2022-11-07T13:49:22.998Z,2.90
2022-11-07T13:51:59.424Z,2.92
2022-11-07T13:54:36.481Z,2.94
2022-11-07T13:57:14.990Z,2.90
2022-11-07T13:59:51.412Z,2.92
2022-11-07T14:02:26.920Z,2.93
2022-11-07T14:05:20.788Z,2.95
2022-11-07T14:07:43.233Z,2.92
2022-11-07T14:10:25.305Z,2.84
2022-11-07T14:13:05.269Z,2.83
2022-11-07T14:15:41.133Z,2.83
2022-11-07T14:18:17.631Z,2.83
2022-11-07T14:20:52.522Z,2.82
2022-11-07T14:23:30.050Z,2.77
2022-11-07T14:26:07.692Z,2.76
2022-11-07T14:28:42.381Z,2.76
2022-11-07T14:31:21.701Z,2.77
2022-11-07T14:33:59.626Z,2.78
2022-11-07T14:36:34.580Z,2.79
2022-11-07T14:39:15.547Z,2.78
2022-11-07T14:41:48.301Z,2.78
2022-11-07T14:44:28.391Z,2.79
2022-11-07T14:47:01.123Z,2.80
2022-11-07T14:49:39.326Z,2.84
2022-11-07T14:52:20.978Z,2.87
2022-11-07T14:54:57.175Z,2.89
2022-11-07T14:57:30.797Z,2.87
2022-11-07T15:00:12.990Z,2.86
2022-11-07T15:02:49.216Z,2.85
2022-11-07T15:05:28.315Z,2.82
2022-11-07T15:08:02.948Z,2.78
2022-11-07T15:10:41.193Z,2.77
2022-11-07T15:13:25.460Z,2.80
2022-11-07T15:16:06.678Z,2.81
2022-11-07T15:18:46.055Z,2.81
2022-11-07T15:21:31.682Z,2.83
2022-11-07T15:24:25.468Z,2.84
2022-11-07T15:27:03.773Z,2.83
2022-11-07T15:29:38.107Z,2.86
2022-11-07T15:32:17.485Z,2.86
2022-11-07T15:35:07.824Z,2.84
2022-11-07T15:37:29.846Z,2.83
2022-11-07T15:40:03.568Z,2.84
2022-11-07T15:42:37.273Z,2.84
2022-11-07T15:45:12.307Z,2.83
2022-11-07T15:47:47.126Z,2.83
2022-11-07T15:50:23.158Z,2.78
2022-11-07T15:52:57.153Z,2.78
2022-11-07T15:55:30.772Z,2.80
2022-11-07T15:58:04.222Z,2.85
2022-11-07T16:00:37.729Z,2.88
2022-11-07T16:03:17.065Z,2.90
2022-11-07T16:05:53.504Z,2.90
2022-11-07T16:08:27.361Z,2.89
2022-11-07T16:11:02.850Z,2.87
2022-11-07T16:13:36.425Z,2.84
2022-11-07T16:16:14.155Z,2.86
2022-11-07T16:18:47.493Z,2.89
2022-11-07T16:21:21.343Z,2.95
2022-11-07T16:23:55.230Z,2.87
2022-11-07T16:26:31.984Z,2.85
2022-11-07T16:29:05.672Z,2.83
2022-11-07T16:31:39.377Z,2.82
2022-11-07T16:34:13.294Z,2.85
2022-11-07T16:36:48.927Z,2.86
2022-11-07T16:39:23.704Z,2.89
2022-11-07T16:41:57.323Z,2.94
2022-11-07T16:44:30.799Z,2.98
2022-11-07T16:47:04.598Z,2.93
2022-11-07T16:49:39.424Z,2.91
2022-11-07T16:54:59.291Z,3.02
2022-11-07T16:57:36.981Z,2.85
2022-11-07T17:00:19.715Z,2.83
2022-11-07T17:02:53.339Z,2.79
2022-11-07T17:05:27.280Z,2.79
2022-11-07T17:08:01.531Z,2.79
2022-11-07T17:10:35.409Z,2.80
2022-11-07T17:13:09.097Z,2.76
2022-11-07T17:15:42.935Z,2.75
2022-11-07T17:18:23.355Z,2.75
2022-11-07T17:20:57.503Z,2.75
2022-11-07T17:23:31.369Z,2.75
2022-11-07T17:26:07.267Z,2.78
2022-11-07T17:28:40.840Z,2.76
2022-11-07T17:31:14.536Z,2.80
2022-11-07T17:33:48.273Z,2.77
2022-11-07T17:36:30.861Z,2.81
2022-11-07T17:39:05.414Z,2.83
2022-11-07T17:41:39.072Z,2.85
2022-11-07T17:44:12.832Z,2.87
2022-11-07T17:46:47.631Z,2.86
2022-11-07T17:49:22.556Z,2.86
2022-11-07T17:51:56.100Z,2.86
2022-11-07T17:54:29.916Z,2.88
2022-11-07T17:57:05.758Z,2.87
2022-11-07T17:59:44.769Z,2.81
2022-11-07T18:02:18.806Z,2.78
2022-11-07T18:04:52.587Z,2.79
2022-11-07T18:07:25.913Z,2.74
2022-11-07T18:09:59.570Z,2.71
2022-11-07T18:12:34.718Z,2.71
2022-11-07T18:15:11.945Z,2.71
2022-11-07T18:17:45.266Z,2.67
2022-11-07T18:20:18.964Z,2.66
2022-11-07T18:22:53.943Z,2.69
2022-11-07T18:25:27.886Z,2.71
2022-11-07T18:28:01.556Z,2.71
2022-11-07T18:30:36.548Z,2.72
2022-11-07T18:33:09.944Z,2.78
2022-11-07T18:35:44.391Z,2.81
2022-11-07T18:38:18.043Z,2.81
2022-11-07T18:40:59.237Z,2.80
2022-11-07T18:43:33.628Z,2.80
2022-11-07T18:46:09.339Z,2.76
2022-11-07T18:48:43.491Z,2.75
2022-11-07T18:51:19.712Z,2.75
2022-11-07T18:53:54.887Z,2.76
2022-11-07T18:56:29.208Z,2.77
2022-11-07T18:59:03.318Z,2.78
2022-11-07T19:01:37.061Z,2.77
2022-11-07T19:04:11.575Z,2.77
2022-11-07T19:06:57.524Z,2.80
2022-11-07T19:09:33.400Z,2.80
2022-11-07T19:12:07.021Z,2.84
2022-11-07T19:14:40.504Z,2.86
2022-11-07T19:17:14.045Z,2.85
2022-11-07T19:19:47.796Z,2.85
2022-11-07T19:22:21.205Z,2.86
2022-11-07T19:24:54.812Z,2.83
2022-11-07T19:27:29.757Z,2.84
2022-11-07T19:30:03.367Z,2.88
2022-11-07T19:32:36.888Z,2.93
2022-11-07T19:35:11.193Z,2.92
2022-11-07T19:37:44.793Z,2.90
2022-11-07T19:40:18.386Z,2.88
2022-11-07T19:42:52.545Z,2.84
2022-11-07T19:45:27.597Z,2.84
2022-11-07T19:48:00.644Z,2.87
2022-11-07T19:50:33.955Z,2.80
2022-11-07T19:53:07.913Z,2.78
2022-11-07T19:55:41.894Z,2.79
2022-11-07T19:58:16.923Z,2.81
2022-11-07T20:00:50.500Z,2.81
2022-11-07T20:03:24.153Z,2.82
2022-11-07T20:05:57.913Z,2.81
2022-11-07T20:08:31.396Z,2.78
2022-11-07T20:11:05.084Z,2.76
2022-11-07T20:13:38.419Z,2.79
2022-11-07T20:16:13.276Z,2.81
2022-11-07T20:18:46.976Z,2.83
2022-11-07T20:21:22.656Z,2.83
2022-11-07T20:23:57.611Z,2.82
2022-11-07T20:26:33.017Z,2.78
2022-11-07T20:29:07.421Z,2.78
2022-11-07T20:31:43.951Z,2.74
2022-11-07T20:34:20.248Z,2.77
2022-11-07T20:36:55.535Z,2.78
2022-11-07T20:39:29.906Z,2.81
2022-11-07T20:42:03.348Z,2.81
2022-11-07T20:44:37.087Z,2.86
2022-11-07T20:47:11.384Z,2.81
2022-11-07T20:49:45.305Z,2.79
2022-11-07T20:52:18.643Z,2.79
2022-11-07T20:54:52.557Z,2.81
2022-11-07T20:57:26.092Z,2.82
2022-11-07T20:59:59.419Z,2.87
2022-11-07T21:02:34.614Z,2.89
2022-11-07T21:05:17.748Z,2.87
2022-11-07T21:07:44.624Z,2.83
2022-11-07T21:10:18.281Z,2.78
2022-11-07T21:12:51.317Z,2.77
2022-11-07T21:15:24.704Z,2.81
2022-11-07T21:17:58.124Z,2.76
2022-11-07T21:20:31.410Z,2.84
2022-11-07T21:23:05.109Z,2.82
2022-11-07T21:25:43.115Z,2.88
2022-11-07T21:28:18.736Z,2.84
2022-11-07T21:31:01.998Z,2.88
2022-11-07T21:33:35.695Z,2.90
2022-11-07T21:36:13.332Z,2.95
2022-11-07T21:38:46.932Z,2.94
2022-11-07T21:41:20.288Z,2.92
2022-11-07T21:43:53.929Z,2.92
2022-11-07T21:46:29.055Z,2.91
2022-11-07T21:49:03.080Z,2.93
2022-11-07T21:51:37.027Z,2.92
2022-11-07T21:54:11.393Z,2.92
2022-11-07T21:56:44.922Z,2.91
2022-11-07T21:59:19.629Z,2.95
2022-11-07T22:01:54.798Z,3.03
2022-11-07T22:04:28.304Z,3.02
2022-11-07T22:07:02.344Z,3.02
2022-11-07T22:09:35.665Z,3.05
2022-11-07T22:12:09.569Z,3.06
2022-11-07T22:14:43.116Z,3.07
2022-11-07T22:17:16.827Z,3.07
2022-11-07T22:19:51.268Z,3.07
2022-11-07T22:22:24.537Z,3.07
2022-11-07T22:24:57.916Z,3.09
2022-11-07T22:27:31.370Z,3.12
2022-11-07T22:30:04.974Z,3.14
2022-11-07T22:32:38.200Z,3.13
2022-11-07T22:35:12.555Z,3.10
2022-11-07T22:37:45.944Z,3.08
2022-11-07T22:40:20.477Z,3.08
2022-11-07T22:42:54.081Z,3.13
2022-11-07T22:45:27.459Z,3.10
2022-11-07T22:48:00.984Z,3.14
2022-11-07T22:50:34.359Z,3.16
2022-11-07T22:53:08.050Z,3.16
2022-11-07T22:55:41.916Z,3.13
2022-11-07T22:58:16.082Z,3.16
2022-11-07T23:00:49.676Z,3.18
2022-11-07T23:03:23.232Z,3.18
2022-11-07T23:05:56.502Z,3.16
2022-11-07T23:08:29.907Z,3.18
2022-11-07T23:11:44.096Z,3.14
2022-11-07T23:13:41.810Z,3.13
2022-11-07T23:16:35.133Z,3.18
2022-11-07T23:19:10.148Z,3.16
2022-11-07T23:21:43.567Z,3.19
2022-11-07T23:24:17.122Z,3.21
2022-11-07T23:26:50.785Z,3.24
2022-11-07T23:29:25.562Z,3.26
2022-11-07T23:31:58.892Z,3.24
2022-11-07T23:34:33.456Z,3.21
2022-11-07T23:37:09.837Z,3.22
2022-11-07T23:39:44.060Z,3.17
2022-11-07T23:42:17.552Z,3.15
2022-11-07T23:45:08.594Z,3.17
2022-11-07T23:48:00.013Z,3.24
2022-11-07T23:50:50.756Z,3.21
2022-11-07T23:53:41.162Z,3.18
2022-11-07T23:56:14.626Z,3.17
2022-11-07T23:59:06.221Z,3.14
